Time;durP1;ratioP1;P1;durP2;ratioP2;P2;SDS_P1;SDS_P2;PMS_P1;PMS_P2;Temp;Humidity;BMP_temperature;BMP_pressure;BME280_temperature;BME280_humidity;BME280_pressure;Samples;Min_cycle;Max_cycle;Signal;HPM_P1;HPM_P2
2021/03/28 00:01:10;;;;;;;14.50;5.40;;;;;;;2.61;62.16;101494.91;8656725;33;21024;-75
2021/03/28 00:06:20;;;;;;;9.50;5.07;;;;;;;2.68;61.61;101496.44;8655914;33;20974;-75
2021/03/28 00:11:23;;;;;;;11.67;4.33;;;;;;;2.67;61.41;101485.91;8652211;33;20139;-74
2021/03/28 00:16:30;;;;;;;10.35;4.47;;;;;;;2.75;60.92;101490.03;8627297;33;20193;-74
2021/03/28 00:21:46;;;;;;;7.70;4.30;;;;;;;2.87;61.01;101495.88;8653004;33;20408;-74
2021/03/28 00:27:06;;;;;;;12.23;4.53;;;;;;;2.80;61.05;101496.09;8651369;33;20188;-75
2021/03/28 00:32:12;;;;;;;16.47;6.10;;;;;;;2.86;60.93;101495.03;8654356;33;20430;-73
2021/03/28 00:37:24;;;;;;;12.33;5.10;;;;;;;2.92;60.64;101499.28;8661750;33;20253;-74
2021/03/28 00:42:34;;;;;;;13.53;4.87;;;;;;;3.09;60.18;101482.81;8658124;33;20501;-74
2021/03/28 00:47:44;;;;;;;9.33;4.50;;;;;;;3.03;60.47;101491.84;8657763;33;20936;-73
2021/03/28 00:52:55;;;;;;;9.17;4.60;;;;;;;3.00;60.24;101494.59;8654517;33;20417;-73
2021/03/28 00:58:14;;;;;;;11.57;3.87;;;;;;;3.10;59.52;101485.41;8629469;33;20182;-74
2021/03/28 01:03:34;;;;;;;7.23;2.93;;;;;;;3.15;59.42;101496.72;8629763;33;20434;-74
2021/03/28 01:08:53;;;;;;;7.47;2.73;;;;;;;3.19;58.83;101492.22;8669180;33;20399;-74
2021/03/28 01:14:31;;;;;;;9.20;4.20;;;;;;;3.36;58.55;101489.84;8663049;33;20538;-74
2021/03/28 01:19:55;;;;;;;6.73;3.27;;;;;;;3.41;58.70;101479.09;8665443;33;20174;-74
2021/03/28 01:25:14;;;;;;;9.60;3.87;;;;;;;3.31;58.90;101469.69;8675826;33;20151;-74
2021/03/28 01:30:21;;;;;;;7.37;3.40;;;;;;;3.31;59.04;101464.38;8666919;33;20180;-74
2021/03/28 01:35:31;;;;;;;8.93;3.70;;;;;;;3.36;59.36;101459.78;8665846;33;20170;-74
2021/03/28 01:40:43;;;;;;;14.63;4.60;;;;;;;3.43;59.51;101446.25;8666565;33;20281;-73
2021/03/28 01:45:58;;;;;;;7.28;3.58;;;;;;;3.43;58.90;101446.25;8681312;33;20182;-74
2021/03/28 01:51:22;;;;;;;10.90;3.58;;;;;;;3.47;58.87;101447.00;8685633;33;20173;-74
2021/03/28 01:56:31;;;;;;;7.68;4.18;;;;;;;3.58;58.01;101449.28;8674183;33;20433;-74
2021/03/28 02:01:48;;;;;;;5.90;3.38;;;;;;;3.59;57.18;101440.38;8667990;33;20146;-74
2021/03/28 02:07:11;;;;;;;6.70;3.85;;;;;;;3.71;57.18;101447.94;8679790;33;20655;-74
2021/03/28 02:12:19;;;;;;;9.90;3.33;;;;;;;3.64;56.75;101441.94;8679990;33;20418;-74
2021/03/28 02:17:39;;;;;;;6.78;3.20;;;;;;;3.65;56.48;101432.22;8681729;33;20170;-74
2021/03/28 02:23:01;;;;;;;6.18;3.15;;;;;;;3.56;56.90;101436.03;8683818;33;20581;-74
2021/03/28 02:28:16;;;;;;;6.60;3.40;;;;;;;3.55;56.73;101426.34;8679627;33;20154;-73
2021/03/28 02:33:24;;;;;;;8.60;3.27;;;;;;;3.53;56.97;101435.28;8677733;33;20432;-73
2021/03/28 02:38:47;;;;;;;6.03;2.63;;;;;;;3.48;56.88;101432.78;8677939;33;20177;-74
2021/03/28 02:44:06;;;;;;;9.83;2.90;;;;;;;3.45;57.13;101427.56;8677292;33;20146;-74
2021/03/28 02:49:34;;;;;;;5.03;3.50;;;;;;;3.49;57.54;101415.94;8676050;33;20151;-75
2021/03/28 02:54:59;;;;;;;4.77;3.37;;;;;;;3.54;57.13;101434.34;8676036;33;20452;-74
2021/03/28 03:00:27;;;;;;;6.53;3.08;;;;;;;3.62;56.91;101433.19;8677789;33;20186;-74
2021/03/28 03:05:48;;;;;;;10.30;3.20;;;;;;;3.62;57.36;101433.19;8673201;33;21262;-73
2021/03/28 03:11:27;;;;;;;4.40;1.77;;;;;;;3.55;57.52;101417.50;8681230;33;21072;-73
2021/03/28 03:16:47;;;;;;;4.50;2.53;;;;;;;3.64;57.71;101415.38;8677300;33;20432;-75
2021/03/28 03:22:43;;;;;;;7.95;3.15;;;;;;;3.81;57.67;101408.59;8677258;33;20531;-74
2021/03/28 03:28:36;;;;;;;9.43;3.00;;;;;;;3.66;58.13;101415.34;8615953;33;20734;-74
2021/03/28 03:34:41;;;;;;;10.05;2.75;;;;;;;3.89;58.22;101418.00;8656648;33;21054;-74
2021/03/28 03:40:31;;;;;;;6.53;3.05;;;;;;;3.88;58.68;101426.06;8562703;33;20764;-74
2021/03/28 03:45:59;;;;;;;7.73;3.63;;;;;;;3.99;58.74;101417.69;8681820;33;20143;-73
2021/03/28 03:51:26;;;;;;;7.85;3.65;;;;;;;3.93;59.14;101417.00;8682387;33;20506;-73
2021/03/28 03:56:47;;;;;;;5.83;3.23;;;;;;;3.90;59.44;101419.75;8680758;33;20162;-73
2021/03/28 04:02:00;;;;;;;3.33;2.42;;;;;;;3.79;60.14;101423.75;8652778;33;20396;-74
2021/03/28 04:07:24;;;;;;;4.95;2.63;;;;;;;3.91;59.89;101432.13;8680494;33;20423;-74
2021/03/28 04:12:55;;;;;;;8.88;3.88;;;;;;;3.84;60.48;101435.94;8678568;33;20877;-74
2021/03/28 04:18:24;;;;;;;5.32;3.13;;;;;;;3.97;60.56;101431.03;8677919;33;20188;-74
2021/03/28 04:23:53;;;;;;;7.07;3.50;;;;;;;3.92;60.76;101425.00;8646323;33;20217;-74
2021/03/28 04:28:59;;;;;;;6.65;3.63;;;;;;;4.01;60.65;101427.34;8670254;33;20414;-75
2021/03/28 04:34:09;;;;;;;10.18;3.78;;;;;;;4.06;60.96;101441.34;8677329;33;20267;-74
2021/03/28 04:39:29;;;;;;;7.13;4.47;;;;;;;3.95;61.28;101440.88;8676229;33;20284;-74
2021/03/28 04:45:30;;;;;;;8.65;2.50;;;;;;;4.04;61.13;101437.00;8668307;33;21734;-74
2021/03/28 04:51:06;;;;;;;5.35;3.00;;;;;;;3.88;61.57;101428.72;8659736;33;20178;-74
2021/03/28 04:56:32;;;;;;;8.57;3.80;;;;;;;3.85;62.35;101434.16;8660071;33;20507;-74
2021/03/28 05:01:52;;;;;;;7.38;3.05;;;;;;;3.88;62.25;101421.59;8661789;33;20162;-73
2021/03/28 05:07:47;;;;;;;4.97;2.72;;;;;;;3.97;62.15;101430.16;8659618;33;20457;-74
2021/03/28 05:13:32;;;;;;;6.72;3.85;;;;;;;4.13;62.04;101429.53;8658477;33;21542;-74
2021/03/28 05:19:19;;;;;;;10.05;3.50;;;;;;;3.94;62.55;101425.81;8668742;33;20400;-74
2021/03/28 05:25:07;;;;;;;5.77;2.50;;;;;;;4.09;62.75;101435.91;8610168;33;20406;-74
2021/03/28 05:30:44;;;;;;;7.60;3.72;;;;;;;4.26;62.02;101429.94;8601552;33;20938;-74
2021/03/28 05:36:28;;;;;;;10.45;4.15;;;;;;;4.17;62.51;101433.81;8672956;33;20414;-73
2021/03/28 05:42:35;;;;;;;7.25;3.80;;;;;;;4.45;62.03;101434.56;8670993;33;20426;-74
2021/03/28 05:48:06;;;;;;;11.23;3.38;;;;;;;4.43;61.92;101434.63;8596993;33;20580;-74
2021/03/28 05:53:49;;;;;;;5.78;2.88;;;;;;;4.51;61.73;101435.19;8677344;33;20429;-74
2021/03/28 05:59:36;;;;;;;7.43;3.92;;;;;;;4.54;61.90;101428.88;8656102;33;20867;-74
2021/03/28 06:05:44;;;;;;;7.13;3.15;;;;;;;4.51;62.43;101431.66;8567767;33;20439;-74
2021/03/28 06:11:32;;;;;;;7.20;3.65;;;;;;;4.74;62.10;101426.28;8555137;33;20266;-73
2021/03/28 06:17:02;;;;;;;10.02;3.72;;;;;;;4.78;61.97;101440.34;8597572;33;20685;-74
2021/03/28 06:23:03;;;;;;;12.60;3.20;;;;;;;4.78;61.99;101438.56;8598617;33;20420;-73
2021/03/28 06:28:51;;;;;;;5.57;2.78;;;;;;;5.06;61.76;101429.47;8600702;33;20247;-73
2021/03/28 06:34:36;;;;;;;6.90;3.30;;;;;;;5.21;61.50;101425.28;8594039;33;20252;-73
2021/03/28 06:40:26;;;;;;;11.13;3.58;;;;;;;5.36;61.21;101434.44;8653596;33;20196;-75
2021/03/28 06:46:15;;;;;;;6.53;2.42;;;;;;;5.60;60.83;101437.88;8656485;33;20154;-73
2021/03/28 06:51:42;;;;;;;6.38;2.92;;;;;;;5.66;60.58;101437.59;8651780;33;20469;-73
2021/03/28 06:57:29;;;;;;;7.53;3.78;;;;;;;5.80;60.61;101442.31;8657094;33;20214;-72
2021/03/28 07:03:24;;;;;;;4.35;1.83;;;;;;;5.81;60.90;101438.69;8658619;33;20516;-74
2021/03/28 07:09:07;;;;;;;5.65;2.47;;;;;;;6.37;59.41;101446.81;8658155;33;20525;-72
2021/03/28 07:14:57;;;;;;;6.25;2.80;;;;;;;6.41;59.88;101439.50;8641186;33;21124;-72
2021/03/28 07:20:22;;;;;;;11.05;3.53;;;;;;;6.65;59.79;101431.28;8627764;33;20430;-74
2021/03/28 07:25:51;;;;;;;6.00;2.78;;;;;;;6.66;59.18;101425.84;8647883;33;20182;-75
2021/03/28 07:31:27;;;;;;;3.92;2.50;;;;;;;6.94;58.76;101440.56;8645318;33;20183;-75
2021/03/28 07:37:27;;;;;;;6.93;3.33;;;;;;;6.85;58.65;101442.72;8645304;33;20599;-74
2021/03/28 07:43:37;;;;;;;6.03;2.55;;;;;;;7.38;57.55;101437.50;8529025;33;20193;-74
2021/03/28 07:49:19;;;;;;;1.77;1.63;;;;;;;7.10;57.50;101441.53;8409973;34;20931;-74
2021/03/28 07:54:52;;;;;;;5.93;2.13;;;;;;;7.19;57.92;101448.25;8640798;33;20162;-74
2021/03/28 08:00:28;;;;;;;6.13;2.17;;;;;;;7.56;57.27;101420.50;8618390;33;20410;-74
2021/03/28 08:06:00;;;;;;;8.73;2.80;;;;;;;7.48;56.95;101418.22;8644612;33;20190;-75
2021/03/28 08:11:23;;;;;;;4.78;1.67;;;;;;;7.40;57.36;101432.94;8638026;33;20416;-74
2021/03/28 08:16:57;;;;;;;3.97;2.08;;;;;;;8.25;55.08;101419.50;8646599;33;20186;-75
2021/03/28 08:22:18;;;;;;;3.30;1.83;;;;;;;7.97;55.60;101427.31;8639199;33;20405;-74
2021/03/28 08:27:56;;;;;;;3.90;1.95;;;;;;;7.52;56.66;101429.66;8589301;33;20190;-72
2021/03/28 08:34:16;;;;;;;4.70;2.13;;;;;;;7.43;56.98;101431.00;8645883;33;20186;-75
2021/03/28 08:39:34;;;;;;;3.00;1.95;;;;;;;7.39;57.11;101434.75;8567789;33;20456;-75
2021/03/28 08:45:03;;;;;;;2.53;1.58;;;;;;;7.57;56.84;101438.31;8646795;33;20193;-75
2021/03/28 08:50:20;;;;;;;1.90;1.45;;;;;;;7.71;56.23;101434.91;8648567;33;20425;-74
2021/03/28 08:56:21;;;;;;;7.82;2.92;;;;;;;7.79;56.52;101426.44;8641898;33;20205;-74
2021/03/28 09:01:38;;;;;;;4.50;2.13;;;;;;;7.92;56.08;101433.75;8644064;33;20505;-74
2021/03/28 09:06:58;;;;;;;4.28;2.00;;;;;;;8.24;55.72;101423.13;8640733;33;20499;-76
2021/03/28 09:12:18;;;;;;;5.90;1.70;;;;;;;8.45;55.36;101421.09;8641271;33;20678;-73
2021/03/28 09:17:31;;;;;;;4.53;2.05;;;;;;;8.34;55.87;101412.78;8616334;33;20989;-74
2021/03/28 09:22:48;;;;;;;9.73;2.45;;;;;;;8.72;54.77;101423.16;8640331;33;20440;-74
2021/03/28 09:28:21;;;;;;;3.88;2.40;;;;;;;8.69;55.39;101410.81;8652100;33;21409;-76
2021/03/28 09:34:02;;;;;;;5.88;2.38;;;;;;;9.06;54.67;101406.03;8653317;33;20411;-73
2021/03/28 09:39:27;;;;;;;3.05;1.73;;;;;;;9.34;53.24;101413.28;8658578;33;20190;-73
2021/03/28 09:44:46;;;;;;;3.35;1.98;;;;;;;9.03;54.06;101385.63;8655707;33;20527;-74
2021/03/28 09:50:07;;;;;;;10.75;2.75;;;;;;;9.82;53.57;101389.81;8657324;33;20146;-73
2021/03/28 09:55:32;;;;;;;5.78;2.05;;;;;;;9.35;54.41;101390.03;8656633;33;20598;-74
2021/03/28 10:01:02;;;;;;;8.63;1.85;;;;;;;9.61;53.77;101407.25;8661516;33;20394;-73
2021/03/28 10:06:12;;;;;;;4.18;2.40;;;;;;;10.17;53.10;101390.34;8666137;33;20466;-73
2021/03/28 10:11:32;;;;;;;4.95;1.88;;;;;;;9.90;53.21;101381.31;8672821;33;20677;-74
2021/03/28 10:16:45;;;;;;;3.28;1.40;;;;;;;10.20;51.80;101383.03;8653014;33;20591;-74
2021/03/28 10:21:59;;;;;;;7.25;2.40;;;;;;;9.78;52.88;101374.84;8620607;33;20421;-74
2021/03/28 10:27:37;;;;;;;5.57;2.72;;;;;;;10.49;51.22;101367.72;8620924;33;20135;-74
2021/03/28 10:33:02;;;;;;;4.13;2.00;;;;;;;10.05;52.66;101366.94;8678478;33;20189;-73
2021/03/28 10:38:26;;;;;;;6.75;3.10;;;;;;;10.07;52.19;101353.44;8654337;33;20150;-73
2021/03/28 10:43:53;;;;;;;3.58;1.85;;;;;;;11.82;48.80;101364.06;8669056;33;20185;-74
2021/03/28 10:50:03;;;;;;;5.43;2.42;;;;;;;11.56;48.50;101349.75;8675163;33;20407;-73
2021/03/28 10:55:44;;;;;;;7.15;2.38;;;;;;;11.91;47.64;101351.78;8674992;33;20233;-73
2021/03/28 11:01:53;;;;;;;6.45;2.45;;;;;;;11.54;47.96;101340.06;8678217;33;21138;-74
2021/03/28 11:07:21;;;;;;;6.45;3.13;;;;;;;12.08;47.32;101340.66;8554241;33;20212;-74
2021/03/28 11:12:43;;;;;;;4.40;2.38;;;;;;;11.75;47.30;101311.63;8669510;33;21904;-73
2021/03/28 11:18:18;;;;;;;2.92;1.65;;;;;;;12.21;47.15;101311.00;8660283;33;20429;-73
2021/03/28 11:23:44;;;;;;;4.90;2.88;;;;;;;11.44;48.44;101329.94;8677896;33;20255;-73
2021/03/28 11:29:15;;;;;;;2.92;2.22;;;;;;;11.34;49.14;101336.94;8676777;33;20509;-73
2021/03/28 11:34:22;;;;;;;8.25;2.83;;;;;;;12.38;48.23;101307.94;8678851;33;20257;-73
2021/03/28 11:39:26;;;;;;;3.88;2.30;;;;;;;12.00;46.58;101310.72;8677434;33;21456;-73
2021/03/28 11:44:40;;;;;;;3.53;2.20;;;;;;;11.93;45.79;101301.38;8653164;33;20171;-73
2021/03/28 11:50:21;;;;;;;3.22;2.20;;;;;;;12.96;44.32;101343.16;8682239;33;20323;-73
2021/03/28 11:55:38;;;;;;;2.38;2.17;;;;;;;12.35;45.80;101304.63;8680290;33;20926;-74
2021/03/28 12:00:46;;;;;;;5.35;3.08;;;;;;;11.75;46.69;101305.41;8683280;33;21088;-74
2021/03/28 12:06:00;;;;;;;3.30;2.20;;;;;;;12.19;44.68;101317.47;8673821;33;21044;-74
2021/03/28 12:11:39;;;;;;;4.18;2.60;;;;;;;12.20;43.36;101348.81;8659466;33;21186;-74
2021/03/28 12:17:27;;;;;;;6.57;3.00;;;;;;;11.44;45.91;101316.50;8552396;33;20195;-74
2021/03/28 12:22:43;;;;;;;6.00;2.58;;;;;;;11.32;46.40;101294.97;8687933;33;20403;-74
2021/03/28 12:28:02;;;;;;;3.42;2.33;;;;;;;11.39;45.62;101337.47;8663562;33;20174;-74
2021/03/28 12:33:08;;;;;;;3.53;2.30;;;;;;;11.16;45.71;101317.56;8661361;33;20730;-74
2021/03/28 12:38:33;;;;;;;4.07;2.20;;;;;;;11.03;45.16;101324.72;8640469;33;20190;-73
2021/03/28 12:43:40;;;;;;;4.00;2.88;;;;;;;11.10;43.36;101338.59;8656187;33;20184;-73
2021/03/28 12:48:43;;;;;;;6.63;2.10;;;;;;;11.36;43.12;101313.47;8661173;33;20297;-74
2021/03/28 12:53:45;;;;;;;3.22;2.33;;;;;;;11.22;43.27;101311.75;8691280;33;20153;-74
2021/03/28 12:58:53;;;;;;;3.22;1.98;;;;;;;11.18;43.05;101320.97;8664452;33;20228;-73
2021/03/28 13:04:15;;;;;;;5.53;3.30;;;;;;;11.31;43.01;101309.41;8684448;33;20182;-74
2021/03/28 13:09:27;;;;;;;7.05;1.90;;;;;;;11.05;43.79;101306.63;8683057;33;20454;-74
2021/03/28 13:14:40;;;;;;;6.85;2.38;;;;;;;11.40;43.21;101324.88;8682283;33;20162;-73
2021/03/28 13:19:46;;;;;;;3.13;2.25;;;;;;;11.24;43.39;101303.56;8682650;33;20626;-73
2021/03/28 13:24:49;;;;;;;4.28;2.25;;;;;;;11.43;43.59;101290.53;8681614;33;20409;-72
2021/03/28 13:29:57;;;;;;;5.47;2.15;;;;;;;11.25;44.35;101318.75;8683903;33;20439;-73
2021/03/28 13:35:03;;;;;;;2.38;2.00;;;;;;;11.60;44.84;101296.56;8683389;33;20425;-73
2021/03/28 13:40:19;;;;;;;7.60;2.90;;;;;;;11.98;43.73;101301.88;8679752;33;20939;-73
2021/03/28 13:45:29;;;;;;;4.30;3.22;;;;;;;12.02;43.64;101286.41;8624862;33;20239;-74
2021/03/28 13:50:50;;;;;;;4.85;2.85;;;;;;;12.17;43.94;101288.81;8596664;33;20517;-73
2021/03/28 13:56:27;;;;;;;7.55;3.78;;;;;;;11.98;43.97;101304.59;8620556;33;20751;-72
2021/03/28 14:01:45;;;;;;;6.82;3.60;;;;;;;11.90;44.69;101293.50;8566411;33;20187;-73
2021/03/28 14:07:05;;;;;;;4.97;3.25;;;;;;;11.80;45.06;101292.47;8616566;33;20218;-73
2021/03/28 14:12:20;;;;;;;9.48;4.80;;;;;;;11.22;48.20;101319.81;8614340;33;20559;-73
2021/03/28 14:17:26;;;;;;;7.60;4.35;;;;;;;10.05;50.49;101333.88;8664510;33;20190;-75
2021/03/28 14:22:43;;;;;;;7.32;3.97;;;;;;;10.72;50.17;101326.75;8676534;33;20429;-73
2021/03/28 14:27:45;;;;;;;6.55;4.20;;;;;;;11.00;49.25;101324.91;8678273;33;21034;-73
2021/03/28 14:32:56;;;;;;;4.30;3.33;;;;;;;11.30;47.88;101313.03;8675502;33;20456;-74
2021/03/28 14:38:41;;;;;;;5.47;3.78;;;;;;;11.27;47.76;101331.13;8673020;33;21437;-74
2021/03/28 14:44:19;;;;;;;12.55;3.33;;;;;;;11.20;48.37;101340.56;8677610;33;21242;-72
2021/03/28 14:49:35;;;;;;;5.55;3.55;;;;;;;10.84;52.12;101341.22;8680507;33;20551;-72
2021/03/28 14:54:45;;;;;;;4.63;3.17;;;;;;;11.12;50.15;101342.03;8693929;33;20410;-73
2021/03/28 14:59:59;;;;;;;5.13;2.75;;;;;;;10.86;48.11;101346.47;8677244;33;20251;-72
2021/03/28 15:05:34;;;;;;;3.65;2.55;;;;;;;10.98;47.50;101335.75;8676726;33;20965;-72
2021/03/28 15:10:44;;;;;;;4.63;2.80;;;;;;;11.26;48.43;101337.47;8664573;33;20422;-75
2021/03/28 15:15:57;;;;;;;7.20;3.08;;;;;;;10.95;48.24;101332.44;8637856;33;20418;-74
2021/03/28 15:21:04;;;;;;;8.57;3.30;;;;;;;10.81;47.17;101339.59;8666367;33;20260;-74
2021/03/28 15:26:31;;;;;;;5.13;2.28;;;;;;;10.95;48.10;101321.69;8674500;33;20902;-73
2021/03/28 15:31:57;;;;;;;4.75;2.47;;;;;;;11.04;47.41;101321.91;8663979;33;20639;-73
2021/03/28 15:37:18;;;;;;;7.95;3.00;;;;;;;10.97;48.01;101327.78;8669485;33;20438;-73
2021/03/28 15:42:35;;;;;;;7.05;3.08;;;;;;;11.00;48.12;101327.63;8650094;33;21664;-72
2021/03/28 15:48:13;;;;;;;6.30;2.50;;;;;;;11.18;47.73;101333.56;8637150;33;21548;-73
2021/03/28 15:53:56;;;;;;;5.75;2.60;;;;;;;10.56;49.00;101334.13;8658162;33;20476;-73
2021/03/28 15:59:28;;;;;;;4.13;3.10;;;;;;;10.64;49.99;101352.41;8526608;33;20237;-73
2021/03/28 16:05:11;;;;;;;4.75;1.77;;;;;;;10.43;50.49;101331.38;8674650;33;20432;-73
2021/03/28 16:10:31;;;;;;;5.03;3.05;;;;;;;10.54;49.97;101333.38;8643688;33;20436;-72
2021/03/28 16:15:52;;;;;;;5.95;2.85;;;;;;;10.69;49.49;101332.34;8656840;33;20304;-73
2021/03/28 16:21:28;;;;;;;10.23;2.35;;;;;;;10.48;50.29;101329.25;8670386;33;20423;-73
2021/03/28 16:26:48;;;;;;;7.68;2.95;;;;;;;10.63;50.41;101322.00;8659533;33;20423;-73
2021/03/28 16:32:24;;;;;;;4.40;2.55;;;;;;;10.69;49.56;101326.97;8659812;33;20412;-73
2021/03/28 16:37:45;;;;;;;5.80;2.13;;;;;;;10.70;49.28;101326.03;8626114;32;20171;-74
2021/03/28 16:42:57;;;;;;;5.82;1.63;;;;;;;10.57;49.73;101346.59;8603612;33;20878;-73
2021/03/28 16:48:12;;;;;;;5.85;2.28;;;;;;;10.66;49.34;101343.28;8595948;33;20404;-75
2021/03/28 16:53:46;;;;;;;6.78;2.10;;;;;;;10.37;50.03;101350.59;8594639;33;20173;-73
2021/03/28 16:58:51;;;;;;;4.78;2.28;;;;;;;10.35;50.52;101349.81;8602088;33;21244;-74
2021/03/28 17:04:19;;;;;;;6.53;2.63;;;;;;;10.57;50.16;101350.13;8604497;33;20435;-74
2021/03/28 17:09:27;;;;;;;3.25;2.22;;;;;;;10.43;51.34;101346.66;8633090;33;20461;-74
2021/03/28 17:14:34;;;;;;;5.75;2.30;;;;;;;10.46;51.10;101344.63;8647876;33;20429;-75
2021/03/28 17:19:43;;;;;;;4.65;2.20;;;;;;;10.36;51.67;101347.03;8641815;33;20432;-74
2021/03/28 17:24:45;;;;;;;4.40;2.53;;;;;;;10.23;52.87;101348.81;8652428;33;20444;-74
2021/03/28 17:29:55;;;;;;;5.60;2.28;;;;;;;10.11;52.68;101349.56;8631823;33;20210;-74
2021/03/28 17:35:05;;;;;;;4.00;1.73;;;;;;;10.05;52.29;101356.19;8620950;33;20360;-74
2021/03/28 17:40:32;;;;;;;5.72;2.30;;;;;;;10.14;51.60;101357.44;8615307;33;20451;-74
2021/03/28 17:45:44;;;;;;;5.78;3.00;;;;;;;10.14;51.70;101354.75;8600084;33;20183;-74
2021/03/28 17:50:57;;;;;;;5.57;2.50;;;;;;;10.37;51.57;101359.50;8649183;33;20178;-75
2021/03/28 17:56:11;;;;;;;3.22;2.42;;;;;;;10.20;51.25;101351.66;8656442;33;20189;-74
2021/03/28 18:01:25;;;;;;;3.22;2.13;;;;;;;10.15;51.70;101356.50;8662521;33;20395;-74
2021/03/28 18:06:33;;;;;;;6.95;2.78;;;;;;;10.15;51.30;101362.72;8657165;33;20514;-73
2021/03/28 18:11:38;;;;;;;5.55;2.50;;;;;;;10.28;51.67;101362.78;8656525;33;20450;-73
2021/03/28 18:16:42;;;;;;;5.38;1.90;;;;;;;10.33;51.97;101357.97;8653270;33;21673;-73
2021/03/28 18:22:01;;;;;;;6.55;2.90;;;;;;;10.29;51.74;101353.78;8649684;33;20230;-74
2021/03/28 18:27:05;;;;;;;6.25;2.55;;;;;;;10.14;51.62;101368.16;8649056;33;20430;-74
2021/03/28 18:32:24;;;;;;;5.53;2.35;;;;;;;10.34;50.56;101354.34;8634055;33;20413;-74
2021/03/28 18:37:45;;;;;;;5.55;2.63;;;;;;;10.28;50.42;101376.19;8573498;33;20409;-75
2021/03/28 18:42:57;;;;;;;3.72;2.53;;;;;;;10.25;50.64;101391.66;8563374;33;20414;-74
2021/03/28 18:48:29;;;;;;;15.65;3.08;;;;;;;10.46;50.23;101384.91;8583925;33;20409;-73
2021/03/28 18:53:34;;;;;;;6.50;2.45;;;;;;;10.43;49.90;101378.88;8598929;33;20438;-74
2021/03/28 18:58:41;;;;;;;4.13;2.30;;;;;;;10.55;49.65;101375.38;8624279;33;20679;-74
2021/03/28 19:03:43;;;;;;;4.93;2.67;;;;;;;10.44;49.82;101384.13;8630935;33;20454;-74
2021/03/28 19:08:49;;;;;;;8.88;2.53;;;;;;;10.54;49.67;101387.97;8628592;33;20410;-74
2021/03/28 19:14:00;;;;;;;6.50;2.83;;;;;;;10.59;49.62;101390.34;8583735;33;20449;-75
2021/03/28 19:19:13;;;;;;;6.93;2.58;;;;;;;10.50;49.87;101389.09;8637589;33;20649;-75
2021/03/28 19:24:21;;;;;;;4.72;2.55;;;;;;;10.53;49.61;101388.03;8647992;33;20458;-74
2021/03/28 19:29:41;;;;;;;7.35;3.15;;;;;;;10.46;49.97;101384.06;8650841;33;20410;-74
2021/03/28 19:35:02;;;;;;;8.07;2.28;;;;;;;10.50;50.36;101390.94;8648786;33;22101;-74
2021/03/28 19:40:16;;;;;;;4.68;1.83;;;;;;;10.39;50.35;101384.44;8654205;33;20414;-74
2021/03/28 19:45:37;;;;;;;5.13;2.35;;;;;;;10.50;49.54;101401.69;8658158;33;20502;-74
2021/03/28 19:50:39;;;;;;;6.10;2.40;;;;;;;10.46;50.05;101400.16;8647098;33;20127;-74
2021/03/28 19:55:56;;;;;;;6.10;2.78;;;;;;;10.47;49.58;101396.50;8618700;33;20178;-75
2021/03/28 20:00:58;;;;;;;6.00;2.70;;;;;;;10.49;49.11;101402.66;8661674;33;21953;-75
2021/03/28 20:06:03;;;;;;;6.70;2.53;;;;;;;10.48;49.58;101395.56;8663665;33;20174;-74
2021/03/28 20:11:10;;;;;;;6.22;2.55;;;;;;;10.31;49.95;101392.13;8660907;33;21335;-75
2021/03/28 20:16:16;;;;;;;4.38;2.50;;;;;;;10.41;49.80;101402.28;8626613;33;20463;-75
2021/03/28 20:21:24;;;;;;;4.72;2.58;;;;;;;10.34;49.94;101410.75;8596178;33;20419;-75
2021/03/28 20:26:27;;;;;;;5.53;2.17;;;;;;;10.40;50.11;101417.53;8597390;33;20501;-75
2021/03/28 20:31:30;;;;;;;5.28;2.35;;;;;;;10.36;50.09;101421.38;8597483;33;20442;-74
2021/03/28 20:36:35;;;;;;;5.93;2.33;;;;;;;10.28;50.63;101429.91;8597154;33;20819;-75
2021/03/28 20:41:43;;;;;;;6.63;2.83;;;;;;;10.35;49.57;101407.09;8596929;33;20587;-75
2021/03/28 20:46:48;;;;;;;4.72;2.45;;;;;;;10.27;50.19;101408.53;8620128;33;20414;-75
2021/03/28 20:51:57;;;;;;;17.65;2.97;;;;;;;10.29;50.10;101407.47;8606856;33;20380;-74
2021/03/28 20:57:01;;;;;;;7.03;3.03;;;;;;;10.43;49.99;101408.44;8633575;33;20472;-75
2021/03/28 21:02:10;;;;;;;4.78;2.80;;;;;;;10.41;50.13;101418.41;8637234;33;20454;-75
2021/03/28 21:07:13;;;;;;;11.10;2.78;;;;;;;10.50;50.42;101415.13;8594564;33;20186;-75
2021/03/28 21:12:16;;;;;;;5.93;2.28;;;;;;;10.27;50.87;101427.34;8596276;33;20500;-75
2021/03/28 21:17:27;;;;;;;4.25;2.22;;;;;;;10.15;50.95;101429.84;8653464;33;20495;-75
2021/03/28 21:22:32;;;;;;;8.75;2.55;;;;;;;10.23;51.16;101426.69;8654809;33;20416;-75
2021/03/28 21:27:37;;;;;;;6.60;3.00;;;;;;;10.56;50.72;101425.50;8658148;33;20134;-75
2021/03/28 21:32:42;;;;;;;7.25;2.78;;;;;;;10.29;51.24;101433.47;8657160;33;20414;-75
2021/03/28 21:37:53;;;;;;;1.98;1.70;;;;;;;10.15;51.26;101434.34;8655941;33;20401;-75
2021/03/28 21:43:00;;;;;;;6.40;3.20;;;;;;;10.30;51.38;101433.38;8658164;33;20154;-75
2021/03/28 21:48:06;;;;;;;5.10;2.60;;;;;;;10.39;51.18;101446.22;8652375;33;20422;-75
2021/03/28 21:53:18;;;;;;;2.97;2.10;;;;;;;10.14;51.94;101441.53;8599642;33;20183;-75
2021/03/28 21:58:22;;;;;;;5.53;2.22;;;;;;;10.39;51.59;101450.72;8581008;33;20178;-75
2021/03/28 22:03:30;;;;;;;6.40;3.17;;;;;;;10.30;51.62;101448.63;8655269;33;20544;-75
2021/03/28 22:08:35;;;;;;;4.43;2.30;;;;;;;10.13;52.07;101445.19;8655511;33;20149;-75
2021/03/28 22:13:40;;;;;;;8.63;2.72;;;;;;;10.36;51.81;101443.72;8657033;33;20204;-74
2021/03/28 22:18:44;;;;;;;5.60;2.90;;;;;;;10.22;52.49;101440.19;8659588;33;20444;-74
2021/03/28 22:23:54;;;;;;;6.35;2.60;;;;;;;10.39;51.92;101450.72;8657304;33;20453;-75
2021/03/28 22:28:58;;;;;;;10.85;3.67;;;;;;;10.37;52.04;101447.28;8657057;33;20482;-75
2021/03/28 22:34:08;;;;;;;5.90;2.22;;;;;;;10.22;52.44;101450.94;8658573;33;20569;-75
2021/03/28 22:39:11;;;;;;;6.82;2.85;;;;;;;10.38;52.13;101455.22;8655401;33;20411;-75
2021/03/28 22:44:26;;;;;;;5.57;2.90;;;;;;;10.08;53.04;101451.78;8637657;33;20174;-74
2021/03/28 22:49:30;;;;;;;7.30;3.03;;;;;;;10.16;52.97;101455.72;8646539;33;20213;-75
2021/03/28 22:54:33;;;;;;;6.55;2.83;;;;;;;10.06;53.09;101457.25;8653357;33;20403;-75
2021/03/28 22:59:41;;;;;;;7.80;3.60;;;;;;;10.07;53.04;101450.06;8654000;33;20951;-75
2021/03/28 23:04:46;;;;;;;6.22;2.83;;;;;;;10.14;52.97;101446.03;8657171;33;20217;-75
2021/03/28 23:09:49;;;;;;;10.65;3.20;;;;;;;10.00;53.23;101446.88;8660711;33;20580;-74
2021/03/28 23:14:54;;;;;;;4.15;2.25;;;;;;;10.02;53.33;101438.75;8637879;33;20551;-75
2021/03/28 23:19:59;;;;;;;8.23;3.20;;;;;;;9.85;54.00;101439.78;8599638;33;21004;-74
2021/03/28 23:25:03;;;;;;;7.68;2.72;;;;;;;9.80;54.07;101450.78;8601352;33;21198;-73
2021/03/28 23:30:10;;;;;;;5.63;2.80;;;;;;;9.90;53.79;101451.97;8604301;33;21033;-75
2021/03/28 23:35:14;;;;;;;5.93;3.38;;;;;;;9.76;53.81;101467.13;8598281;33;20218;-74
2021/03/28 23:40:16;;;;;;;6.90;2.70;;;;;;;9.82;53.97;101459.59;8598853;33;20436;-74
2021/03/28 23:45:25;;;;;;;11.43;4.00;;;;;;;10.13;53.44;101457.75;8599197;33;20311;-74
2021/03/28 23:50:31;;;;;;;5.60;1.88;;;;;;;9.75;53.91;101460.91;8599055;33;20555;-74
2021/03/28 23:55:35;;;;;;;9.77;3.88;;;;;;;10.16;53.51;101469.16;8596161;33;20154;-74
